Time;durP1;ratioP1;P1;durP2;ratioP2;P2;SDS_P1;SDS_P2;PMS_P1;PMS_P2;Temp;Humidity;BMP_temperature;BMP_pressure;BME280_temperature;BME280_humidity;BME280_pressure;Samples;Min_cycle;Max_cycle;Signal;HPM_P1;HPM_P2
2022/03/16 00:01:59;;;;;;;;;17.33;16.00;;;;;13.83;69.13;101763.00;5016528;28;45928;-76
2022/03/16 00:04:25;;;;;;;;;23.33;20.00;;;;;13.84;69.18;101758.56;5014744;28;49295;-76
2022/03/16 00:06:50;;;;;;;;;17.00;17.00;;;;;13.85;69.03;101771.00;5014874;28;62191;-76
2022/03/16 00:09:15;;;;;;;;;20.67;18.00;;;;;13.85;69.24;101761.28;5016433;28;45358;-76
2022/03/16 00:11:41;;;;;;;;;18.33;18.33;;;;;13.83;69.22;101759.47;5015344;28;53340;-77
2022/03/16 00:14:06;;;;;;;;;17.00;15.67;;;;;13.88;69.40;101763.94;5015724;28;53371;-76
2022/03/16 00:16:32;;;;;;;;;19.00;17.00;;;;;13.87;69.42;101766.59;5016106;28;45722;-77
2022/03/16 00:18:57;;;;;;;;;18.00;16.67;;;;;13.88;69.46;101769.25;5014999;28;54694;-77
2022/03/16 00:21:22;;;;;;;;;16.33;16.33;;;;;13.88;69.24;101771.91;5015988;28;45457;-76
2022/03/16 00:23:48;;;;;;;;;21.33;16.33;;;;;13.88;69.02;101771.91;5014988;28;53896;-76
2022/03/16 00:26:14;;;;;;;;;21.00;16.67;;;;;13.90;69.51;101766.63;5010747;28;46244;-77
2022/03/16 00:28:39;;;;;;;;;17.33;17.33;;;;;13.90;69.25;101769.25;5015984;28;45387;-76
2022/03/16 00:31:05;;;;;;;;;18.00;17.00;;;;;13.92;68.89;101764.88;5011427;28;46864;-76
2022/03/16 00:33:30;;;;;;;;;17.00;16.33;;;;;13.91;69.04;101768.41;5015080;28;54451;-77
2022/03/16 00:35:56;;;;;;;;;18.67;16.00;;;;;13.87;69.33;101755.97;5014503;28;49947;-76
2022/03/16 00:38:21;;;;;;;;;14.00;13.00;;;;;13.88;69.37;101758.63;5015306;28;56206;-76
2022/03/16 00:40:46;;;;;;;;;19.33;16.67;;;;;13.93;69.01;101760.47;5014043;28;58786;-76
2022/03/16 00:43:13;;;;;;;;;19.67;16.67;;;;;13.90;69.36;101761.31;5014514;28;45261;-76
2022/03/16 00:45:39;;;;;;;;;22.33;16.00;;;;;13.94;69.20;101768.44;5015158;28;47605;-77
2022/03/16 00:48:04;;;;;;;;;19.33;16.67;;;;;13.95;68.91;101764.91;5008463;28;57335;-76
2022/03/16 00:50:30;;;;;;;;;17.67;16.00;;;;;13.96;69.39;101760.53;5015508;28;54390;-76
2022/03/16 00:52:55;;;;;;;;;15.67;15.00;;;;;13.91;69.39;101746.28;5014516;28;45490;-76
2022/03/16 00:55:21;;;;;;;;;18.67;17.00;;;;;13.96;69.35;101752.56;5015303;28;56395;-76
2022/03/16 00:57:46;;;;;;;;;18.67;17.00;;;;;13.96;69.30;101752.56;5015477;28;45488;-77
2022/03/16 01:00:12;;;;;;;;;18.33;18.33;;;;;13.96;69.05;101741.94;5012997;28;45434;-76
2022/03/16 01:02:37;;;;;;;;;18.00;16.00;;;;;13.92;69.32;101735.69;5015392;28;45512;-76
2022/03/16 01:05:03;;;;;;;;;18.00;15.33;;;;;13.92;69.02;101734.78;5013943;28;58259;-75
2022/03/16 01:07:29;;;;;;;;;16.00;13.67;;;;;13.96;69.05;101747.25;5014454;28;46177;-77
2022/03/16 01:09:54;;;;;;;;;18.33;15.33;;;;;13.95;69.16;101738.34;5015479;28;45856;-76
2022/03/16 01:12:20;;;;;;;;;15.67;14.67;;;;;13.92;69.06;101733.03;5015111;28;45872;-76
2022/03/16 01:14:46;;;;;;;;;15.33;14.00;;;;;13.92;69.08;101725.06;5015048;28;46925;-76
2022/03/16 01:17:11;;;;;;;;;18.33;15.33;;;;;13.94;69.15;101725.97;5013960;28;45427;-75
2022/03/16 01:19:37;;;;;;;;;17.67;14.67;;;;;13.92;68.76;101729.47;5015542;28;45201;-75
2022/03/16 01:22:03;;;;;;;;;17.67;16.00;;;;;13.93;68.87;101725.94;5014951;28;45576;-76
2022/03/16 01:24:28;;;;;;;;;17.33;15.00;;;;;13.93;69.00;101712.69;5008648;28;46434;-77
2022/03/16 01:26:54;;;;;;;;;13.67;13.67;;;;;13.93;68.95;101717.97;5014617;28;58089;-77
2022/03/16 01:29:19;;;;;;;;;15.67;13.00;;;;;13.92;68.96;101716.22;5014738;28;53908;-76
2022/03/16 01:31:45;;;;;;;;;14.67;14.67;;;;;13.87;68.62;101702.88;5014187;28;55748;-76
2022/03/16 01:34:10;;;;;;;;;17.33;13.67;;;;;13.91;68.59;101701.16;5014441;28;60338;-76
2022/03/16 01:36:37;;;;;;;;;16.33;15.00;;;;;13.88;69.15;101702.00;5014917;28;45353;-76
2022/03/16 01:39:03;;;;;;;;;14.33;13.67;;;;;13.87;68.64;101698.47;5014900;28;45521;-77
2022/03/16 01:41:29;;;;;;;;;15.67;14.00;;;;;13.83;68.41;101688.66;5014460;28;45380;-76
2022/03/16 01:43:55;;;;;;;;;20.67;17.00;;;;;13.85;68.52;101694.03;5016681;28;60885;-76
2022/03/16 01:46:20;;;;;;;;;15.67;15.00;;;;;13.82;68.54;101699.28;5017064;28;45217;-77
2022/03/16 01:48:46;;;;;;;;;17.00;13.67;;;;;13.82;68.48;101702.81;5012660;28;56634;-76
2022/03/16 01:51:11;;;;;;;;;14.33;14.00;;;;;13.74;68.91;101695.63;5017878;28;46260;-76
2022/03/16 01:53:37;;;;;;;;;16.00;14.67;;;;;13.80;68.40;101707.22;5018228;28;46245;-76
2022/03/16 01:56:02;;;;;;;;;14.67;12.33;;;;;13.78;68.75;101708.06;5019619;28;56502;-77
2022/03/16 01:58:27;;;;;;;;;17.67;14.33;;;;;13.72;68.65;101692.06;5017821;28;45207;-77
2022/03/16 02:00:53;;;;;;;;;17.33;15.00;;;;;13.75;68.69;101708.94;5017261;28;45512;-77
2022/03/16 02:03:18;;;;;;;;;15.00;15.00;;;;;13.74;68.46;101696.56;5017422;28;60118;-78
2022/03/16 02:05:44;;;;;;;;;20.67;15.67;;;;;13.72;68.83;101702.69;5018161;28;45339;-77
2022/03/16 02:08:10;;;;;;;;;16.33;15.00;;;;;13.70;68.29;101696.50;5018359;28;45485;-76
2022/03/16 02:10:36;;;;;;;;;16.00;15.00;;;;;13.73;68.98;101709.78;4999364;28;45523;-76
2022/03/16 02:13:02;;;;;;;;;15.67;12.00;;;;;13.72;68.84;101708.00;5017832;28;46408;-76
2022/03/16 02:15:27;;;;;;;;;20.33;16.67;;;;;13.71;68.83;101712.41;4999593;28;45423;-76
2022/03/16 02:17:55;;;;;;;;;19.00;17.67;;;;;13.64;68.93;101694.66;5017242;28;45234;-77
2022/03/16 02:20:21;;;;;;;;;17.67;15.00;;;;;13.65;68.74;101692.88;5017479;28;45213;-76
2022/03/16 02:22:56;;;;;;;;;18.00;15.33;;;;;13.67;68.65;101702.63;5016473;28;46615;-78
2022/03/16 02:25:22;;;;;;;;;17.67;15.33;;;;;13.65;68.82;101707.03;5016658;28;45229;-76
2022/03/16 02:27:48;;;;;;;;;18.33;14.00;;;;;13.62;68.58;101693.72;5018241;28;45255;-76
2022/03/16 02:30:13;;;;;;;;;14.00;14.00;;;;;13.60;68.78;101687.53;5017669;28;45419;-76
2022/03/16 02:32:39;;;;;;;;;16.33;14.67;;;;;13.55;68.45;101694.53;5015320;28;47412;-76
2022/03/16 02:35:04;;;;;;;;;17.67;16.67;;;;;13.51;68.86;101684.75;5016828;28;58181;-76
2022/03/16 02:37:30;;;;;;;;;19.00;15.33;;;;;13.46;68.66;101687.34;5017545;28;45353;-76
2022/03/16 02:39:55;;;;;;;;;14.00;14.00;;;;;13.44;68.96;101686.44;5017389;28;57701;-76
2022/03/16 02:42:22;;;;;;;;;21.00;16.00;;;;;13.41;68.75;101681.06;5017192;28;45906;-76
2022/03/16 02:44:47;;;;;;;;;15.67;14.67;;;;;13.38;68.78;101681.06;5016671;28;45568;-76
2022/03/16 02:47:13;;;;;;;;;19.67;16.33;;;;;13.32;69.06;101678.31;5016514;28;57537;-77
2022/03/16 02:49:38;;;;;;;;;18.33;15.00;;;;;13.30;68.89;101677.41;5016649;28;53117;-76
2022/03/16 02:52:09;;;;;;;;;17.00;16.00;;;;;13.27;69.22;101682.69;5017450;28;47555;-76
2022/03/16 02:54:35;;;;;;;;;18.00;16.33;;;;;13.22;68.70;101684.38;5016029;28;45590;-76
2022/03/16 02:57:00;;;;;;;;;16.33;16.33;;;;;13.16;68.95;101671.00;5022006;28;45588;-77
2022/03/16 02:59:26;;;;;;;;;16.67;16.33;;;;;13.17;69.30;101681.63;5012281;28;53385;-76
2022/03/16 03:01:52;;;;;;;;;16.00;14.00;;;;;13.16;69.29;101678.97;5016597;28;45533;-76
2022/03/16 03:04:17;;;;;;;;;17.33;17.33;;;;;13.14;68.93;101676.25;5017018;28;45299;-76
2022/03/16 03:06:43;;;;;;;;;21.00;15.67;;;;;13.09;69.05;101677.94;5017041;28;45406;-76
2022/03/16 03:09:08;;;;;;;;;17.67;17.00;;;;;13.03;69.14;101668.16;5017178;28;52324;-76
2022/03/16 03:11:33;;;;;;;;;16.00;15.33;;;;;13.06;69.42;101688.53;5015549;28;47685;-76
2022/03/16 03:13:59;;;;;;;;;20.00;13.33;;;;;13.04;69.50;101685.84;5016501;28;57959;-76
2022/03/16 03:16:24;;;;;;;;;18.00;15.67;;;;;13.02;69.67;101686.69;5016504;28;53695;-76
2022/03/16 03:18:50;;;;;;;;;20.67;18.33;;;;;13.00;69.41;101684.03;5016959;28;53111;-76
2022/03/16 03:21:15;;;;;;;;;19.33;17.67;;;;;12.99;69.64;101687.53;5016809;28;47094;-76
2022/03/16 03:23:40;;;;;;;;;20.00;17.67;;;;;12.98;69.61;101684.88;5015746;28;45329;-78
2022/03/16 03:26:06;;;;;;;;;20.33;19.00;;;;;13.01;69.53;101682.28;5016402;28;50696;-76
2022/03/16 03:28:32;;;;;;;;;17.33;15.33;;;;;13.02;69.59;101673.44;5016518;28;45415;-77
2022/03/16 03:30:57;;;;;;;;;20.00;19.00;;;;;12.99;69.61;101666.31;5016158;28;45217;-76
2022/03/16 03:33:22;;;;;;;;;21.50;19.75;;;;;13.05;69.93;101670.84;5016479;28;58913;-78
2022/03/16 03:35:49;;;;;;;;;22.67;18.33;;;;;13.06;69.84;101669.97;5016291;28;45275;-78
2022/03/16 03:38:15;;;;;;;;;22.00;20.67;;;;;13.07;69.80;101675.28;5016592;28;45509;-76
2022/03/16 03:40:40;;;;;;;;;25.00;20.00;;;;;13.08;69.78;101679.72;5015155;28;46487;-76
2022/03/16 03:43:05;;;;;;;;;18.33;18.00;;;;;13.08;69.78;101677.06;5016252;28;45724;-76
2022/03/16 03:45:31;;;;;;;;;17.33;17.33;;;;;13.09;69.61;101683.25;5015628;28;54961;-76
2022/03/16 03:47:57;;;;;;;;;19.00;16.33;;;;;13.06;69.78;101670.88;5016334;28;45233;-76
2022/03/16 03:50:22;;;;;;;;;20.67;17.67;;;;;13.10;69.64;101685.03;5016139;28;46292;-76
2022/03/16 03:52:48;;;;;;;;;16.67;16.33;;;;;13.10;69.85;101677.06;5016355;28;45371;-76
2022/03/16 03:55:13;;;;;;;;;24.67;20.33;;;;;13.14;69.81;101675.38;5015023;28;50697;-76
2022/03/16 03:57:38;;;;;;;;;24.00;20.33;;;;;13.13;69.82;101669.19;5016370;28;45435;-76
2022/03/16 04:00:04;;;;;;;;;24.00;20.67;;;;;13.14;69.86;101675.38;5014295;28;53561;-77
2022/03/16 04:02:30;;;;;;;;;19.33;18.33;;;;;13.11;69.52;101677.13;5015482;28;45271;-76
2022/03/16 04:04:55;;;;;;;;;20.33;17.00;;;;;13.10;69.49;101679.72;5016144;28;47274;-77
2022/03/16 04:07:21;;;;;;;;;22.50;20.75;;;;;13.05;69.79;101673.50;5015922;28;47536;-76
2022/03/16 04:09:48;;;;;;;;;23.00;20.67;;;;;13.04;69.76;101667.28;5015930;28;45862;-77
2022/03/16 04:12:14;;;;;;;;;25.67;20.67;;;;;13.03;69.67;101669.91;5015915;28;45397;-76
2022/03/16 04:14:39;;;;;;;;;20.33;20.33;;;;;13.00;69.94;101670.78;5015826;28;45339;-76
2022/03/16 04:17:05;;;;;;;;;12.00;6.00;;;;;12.97;69.72;101657.47;5016286;28;48102;-76
2022/03/16 04:19:30;;;;;;;;;18.00;18.00;;;;;12.94;69.75;101652.09;5015452;28;46723;-76
2022/03/16 04:21:55;;;;;;;;;21.00;21.00;;;;;12.93;70.09;101649.44;5016196;28;45449;-76
2022/03/16 04:24:21;;;;;;;;;22.00;21.33;;;;;12.89;70.05;101643.22;5015783;28;48351;-76
2022/03/16 04:26:46;;;;;;;;;24.33;21.33;;;;;12.90;69.89;101638.81;5015457;28;56594;-75
2022/03/16 04:29:12;;;;;;;;;23.33;20.67;;;;;12.84;70.15;101637.84;5015592;28;47264;-77
2022/03/16 04:31:37;;;;;;;;;24.00;22.00;;;;;12.86;70.27;101645.81;5015108;28;45370;-76
2022/03/16 04:34:02;;;;;;;;;23.67;19.33;;;;;12.83;70.29;101643.09;5016014;28;52411;-76
2022/03/16 04:36:29;;;;;;;;;26.00;21.67;;;;;12.82;70.27;101644.88;5014296;28;45569;-76
2022/03/16 04:38:55;;;;;;;;;23.33;20.67;;;;;12.81;70.37;101628.97;5015298;28;46343;-76
2022/03/16 04:41:21;;;;;;;;;20.00;19.33;;;;;12.78;70.21;101631.56;5015705;28;45257;-76
2022/03/16 04:43:46;;;;;;;;;27.25;25.25;;;;;12.77;70.46;101622.72;5016741;28;57718;-77
2022/03/16 04:46:14;;;;;;;;;22.67;21.33;;;;;12.75;70.28;101634.19;5014175;28;54880;-77
2022/03/16 04:48:39;;;;;;;;;21.00;20.25;;;;;12.75;70.52;101628.88;5013988;28;45370;-77
2022/03/16 04:51:05;;;;;;;;;20.33;18.67;;;;;12.74;70.41;101624.44;5016034;28;45303;-76
2022/03/16 04:53:31;;;;;;;;;26.75;22.50;;;;;12.73;70.50;101634.16;5015112;28;45317;-77
2022/03/16 04:55:56;;;;;;;;;21.25;21.25;;;;;12.68;70.47;101625.25;5015745;28;45750;-76
2022/03/16 04:58:21;;;;;;;;;27.33;22.00;;;;;12.71;70.43;101633.22;5015619;28;46612;-76
2022/03/16 05:00:47;;;;;;;;;23.67;21.33;;;;;12.71;70.17;101627.03;5006722;28;45667;-76
2022/03/16 05:03:14;;;;;;;;;29.50;22.00;;;;;12.70;70.34;101626.16;5015691;28;46021;-77
2022/03/16 05:05:40;;;;;;;;;23.00;23.00;;;;;12.65;70.38;101627.84;5015376;28;45517;-77
2022/03/16 05:08:05;;;;;;;;;30.75;21.25;;;;;12.70;70.63;101638.50;5015435;28;47410;-77
2022/03/16 05:10:31;;;;;;;;;20.67;20.00;;;;;12.69;70.55;101628.78;5015294;28;45260;-76
2022/03/16 05:12:56;;;;;;;;;24.00;23.00;;;;;12.68;70.73;101630.53;5014473;28;55681;-76
2022/03/16 05:15:22;;;;;;;;;26.33;21.00;;;;;12.68;70.70;101622.59;5015553;28;45218;-76
2022/03/16 05:17:47;;;;;;;;;28.33;26.00;;;;;12.70;70.64;101622.63;5016087;28;45862;-76
2022/03/16 05:20:13;;;;;;;;;22.25;22.25;;;;;12.70;70.86;101622.63;5018886;28;45355;-75
2022/03/16 05:22:51;;;;;;;;;22.75;19.75;;;;;12.69;70.71;101629.69;5017549;28;45340;-77
2022/03/16 05:25:18;;;;;;;;;31.75;28.00;;;;;12.70;70.71;101625.25;5017412;28;45441;-77
2022/03/16 05:27:43;;;;;;;;;29.25;26.75;;;;;12.64;70.74;101619.88;5018351;28;45842;-76
2022/03/16 05:30:10;;;;;;;;;24.75;23.00;;;;;12.70;70.95;101635.84;5014535;28;60381;-76
2022/03/16 05:32:35;;;;;;;;;26.00;23.25;;;;;12.72;70.72;101648.25;5014386;28;45545;-76
2022/03/16 05:35:01;;;;;;;;;26.67;22.33;;;;;12.74;70.83;101643.88;5017940;28;45485;-74
2022/03/16 05:37:26;;;;;;;;;26.50;21.00;;;;;12.78;71.06;101639.50;5018851;28;46332;-77
2022/03/16 05:39:52;;;;;;;;;29.00;23.75;;;;;12.79;70.71;101651.91;5018107;28;50908;-75
2022/03/16 05:42:18;;;;;;;;;29.00;25.67;;;;;12.82;70.61;101647.53;5018053;28;45367;-76
2022/03/16 05:44:44;;;;;;;;;25.50;23.75;;;;;12.85;70.45;101649.34;5018750;28;45531;-77
2022/03/16 05:47:09;;;;;;;;;28.25;24.25;;;;;12.87;70.51;101652.00;5015346;28;64396;-78
2022/03/16 05:49:34;;;;;;;;;33.00;27.25;;;;;12.88;70.96;101652.03;5018495;28;45475;-77
2022/03/16 05:52:00;;;;;;;;;33.25;27.50;;;;;12.87;70.73;101649.34;5018967;28;53365;-77
2022/03/16 05:54:25;;;;;;;;;34.25;25.00;;;;;12.79;70.59;101634.25;5017932;28;55698;-76
2022/03/16 05:56:51;;;;;;;;;31.00;25.67;;;;;12.86;70.32;101645.81;5016741;28;50248;-76
2022/03/16 05:59:16;;;;;;;;;28.33;26.00;;;;;12.87;70.85;101637.00;5016499;28;62302;-75
2022/03/16 06:01:41;;;;;;;;;28.00;25.50;;;;;12.86;70.79;101643.16;5017929;28;55854;-76
2022/03/16 06:04:07;;;;;;;;;31.75;27.25;;;;;12.87;70.98;101649.34;5019601;28;45305;-76
2022/03/16 06:06:32;;;;;;;;;29.25;28.25;;;;;12.81;70.60;101639.56;5017091;28;63865;-76
2022/03/16 06:08:57;;;;;;;;;25.25;23.00;;;;;12.85;70.69;101644.94;5017288;28;61169;-76
2022/03/16 06:11:24;;;;;;;;;27.25;23.00;;;;;12.82;70.53;101644.88;5016750;28;45605;-77
2022/03/16 06:13:49;;;;;;;;;32.00;28.00;;;;;12.87;70.63;101649.34;5018744;28;45625;-77
2022/03/16 06:16:14;;;;;;;;;29.67;27.67;;;;;12.88;70.75;101651.13;5015739;28;47366;-78
2022/03/16 06:18:40;;;;;;;;;27.75;27.00;;;;;12.88;70.68;101652.03;5017240;28;62767;-78
2022/03/16 06:21:05;;;;;;;;;30.25;28.00;;;;;12.87;70.69;101638.75;5017771;28;52959;-78
2022/03/16 06:23:31;;;;;;;;;29.25;26.75;;;;;12.88;70.64;101644.06;5014597;28;55578;-76
2022/03/16 06:25:56;;;;;;;;;30.25;24.25;;;;;12.88;70.71;101636.13;5016289;28;47558;-76
2022/03/16 06:28:21;;;;;;;;;27.25;24.75;;;;;12.90;70.90;101650.31;5014456;28;45475;-78
2022/03/16 06:30:47;;;;;;;;;29.75;28.00;;;;;12.92;70.61;101651.19;5006542;28;57356;-77
2022/03/16 06:33:12;;;;;;;;;27.50;26.25;;;;;12.92;70.80;101653.84;5015175;28;45582;-78
2022/03/16 06:35:38;;;;;;;;;32.50;28.25;;;;;12.93;70.76;101663.59;5012122;28;46621;-78
2022/03/16 06:38:03;;;;;;;;;30.50;24.25;;;;;12.95;70.71;101674.22;5014218;28;59341;-78
2022/03/16 06:40:29;;;;;;;;;29.50;27.00;;;;;12.94;70.50;101673.31;5016403;28;45409;-79
2022/03/16 06:42:56;;;;;;;;;26.25;26.25;;;;;12.99;70.53;101676.03;4996110;28;52832;-75
2022/03/16 06:45:21;;;;;;;;;29.75;26.75;;;;;12.92;71.29;101668.88;5016862;28;46246;-77
2022/03/16 06:47:47;;;;;;;;;26.50;24.75;;;;;12.79;71.94;101679.31;5009535;28;45551;-77
2022/03/16 06:50:12;;;;;;;;;34.50;32.25;;;;;12.70;72.12;101671.19;5017489;28;45497;-76
2022/03/16 06:52:40;;;;;;;;;32.00;27.75;;;;;12.66;72.62;101674.66;5013534;28;45460;-78
2022/03/16 06:55:07;;;;;;;;;31.25;24.00;;;;;12.59;72.65;101683.38;5016334;28;45682;-77
2022/03/16 06:57:33;;;;;;;;;30.25;28.00;;;;;12.54;72.86;101691.25;5016388;28;45251;-77
2022/03/16 06:59:58;;;;;;;;;28.00;24.67;;;;;12.48;73.50;101696.44;5013725;28;46831;-77
2022/03/16 07:02:23;;;;;;;;;31.50;29.00;;;;;12.43;73.45;101697.25;5016367;28;51511;-76
2022/03/16 07:04:49;;;;;;;;;32.50;27.75;;;;;12.39;73.94;101698.94;5010662;28;47621;-77
2022/03/16 07:07:14;;;;;;;;;32.00;27.00;;;;;12.37;74.33;101687.44;5015860;28;54711;-77
2022/03/16 07:09:40;;;;;;;;;26.50;18.50;;;;;12.37;73.87;101686.53;5017280;28;45552;-77
2022/03/16 07:12:06;;;;;;;;;32.25;27.00;;;;;12.37;73.92;101691.84;5017155;28;54881;-76
2022/03/16 07:14:31;;;;;;;;;32.00;29.00;;;;;12.35;74.04;101693.56;5015077;28;47439;-76
2022/03/16 07:16:57;;;;;;;;;34.50;29.25;;;;;12.33;74.12;101683.84;5013891;28;45614;-77
2022/03/16 07:19:23;;;;;;;;;33.50;28.75;;;;;12.31;74.56;101688.22;5015209;28;45351;-78
2022/03/16 07:21:48;;;;;;;;;37.00;29.00;;;;;12.32;74.18;101678.50;5014764;28;47275;-76
2022/03/16 07:24:13;;;;;;;;;35.50;32.75;;;;;12.30;74.22;101673.19;5015278;28;62657;-77
2022/03/16 07:26:39;;;;;;;;;33.25;25.75;;;;;12.31;74.57;101679.38;5017296;28;45349;-77
2022/03/16 07:29:05;;;;;;;;;31.00;31.00;;;;;12.32;74.38;101686.47;5015253;28;54830;-76
2022/03/16 07:31:31;;;;;;;;;33.00;27.25;;;;;12.30;74.33;101678.50;5009741;28;45368;-76
2022/03/16 07:33:56;;;;;;;;;32.50;29.00;;;;;12.37;74.26;101686.53;5016497;28;62573;-76
2022/03/16 07:36:21;;;;;;;;;34.25;29.50;;;;;12.44;73.83;101688.41;5017531;28;45329;-77
2022/03/16 07:38:47;;;;;;;;;32.75;26.75;;;;;12.49;74.70;101690.28;5014314;28;45491;-76
2022/03/16 07:41:12;;;;;;;;;35.75;30.75;;;;;12.50;73.92;101693.81;5013989;28;45478;-76
2022/03/16 07:43:38;;;;;;;;;31.50;28.00;;;;;12.51;74.46;101696.47;5000956;28;47337;-76
2022/03/16 07:46:03;;;;;;;;;33.50;28.75;;;;;12.45;74.64;101680.50;5014345;28;46407;-77
2022/03/16 07:48:29;;;;;;;;;34.50;29.00;;;;;12.53;74.00;101694.78;5011576;28;52649;-76
2022/03/16 07:50:54;;;;;;;;;29.00;26.75;;;;;12.53;74.29;101697.41;5011087;28;45843;-76
2022/03/16 07:55:56;;;;;;;;;34.75;28.00;;;;;12.58;74.50;101690.44;5052611;22;45814;-76
2022/03/16 07:58:22;;;;;;;;;36.25;31.50;;;;;12.57;74.34;101699.25;5043411;28;45203;-76
2022/03/16 08:00:47;;;;;;;;;35.25;31.25;;;;;12.59;74.24;101689.56;5028476;28;45501;-75
2022/03/16 08:03:13;;;;;;;;;38.75;30.50;;;;;12.60;73.81;101687.81;5049226;28;45503;-77
2022/03/16 08:05:39;;;;;;;;;32.75;29.75;;;;;12.58;73.81;101678.97;5041293;28;45251;-75
2022/03/16 08:08:04;;;;;;;;;38.00;32.00;;;;;12.66;73.24;101671.13;5048793;28;45381;-77
2022/03/16 08:10:30;;;;;;;;;33.50;27.00;;;;;12.76;73.37;101676.59;5048708;28;45219;-79
2022/03/16 08:12:55;;;;;;;;;33.00;30.50;;;;;12.85;72.82;101674.09;5031104;28;54174;-77
2022/03/16 08:15:20;;;;;;;;;31.50;27.50;;;;;12.89;72.51;101672.38;5042370;28;45494;-79
2022/03/16 08:17:46;;;;;;;;;33.00;31.00;;;;;13.02;73.02;101676.09;5032052;28;46028;-77
2022/03/16 08:20:11;;;;;;;;;32.75;29.00;;;;;13.04;72.22;101667.28;5043055;28;54564;-78
2022/03/16 08:22:37;;;;;;;;;40.00;30.50;;;;;13.13;72.25;101665.63;5042684;28;46594;-78
2022/03/16 08:25:07;;;;;;;;;34.75;30.25;;;;;13.18;71.84;101672.78;5026371;28;45469;-77
2022/03/16 08:27:32;;;;;;;;;36.75;32.75;;;;;13.25;71.92;101673.78;5052442;28;45375;-78
2022/03/16 08:29:58;;;;;;;;;31.00;30.00;;;;;13.30;71.60;101677.41;5052981;28;45458;-79
2022/03/16 08:32:23;;;;;;;;;36.50;33.00;;;;;13.34;71.76;101681.88;5045968;28;46798;-77
2022/03/16 08:34:50;;;;;;;;;32.00;27.00;;;;;13.35;71.24;101671.28;5045084;28;45490;-82
2022/03/16 08:37:15;;;;;;;;;39.50;34.00;;;;;13.33;71.25;101662.41;5027497;28;45598;-82
2022/03/16 08:39:41;;;;;;;;;29.00;26.67;;;;;13.44;71.09;101673.16;5021352;28;45535;-83
2022/03/16 08:42:07;;;;;;;;;35.25;32.00;;;;;13.48;70.86;101682.97;5026658;28;46374;-82
2022/03/16 08:44:32;;;;;;;;;28.50;26.50;;;;;13.51;70.39;101684.75;4996359;28;45523;-85
2022/03/16 08:46:58;;;;;;;;;29.50;27.25;;;;;13.54;70.79;101685.69;5042506;28;56040;-81
2022/03/16 08:49:23;;;;;;;;;28.50;25.50;;;;;13.56;70.20;101683.94;5042879;28;45612;-81
2022/03/16 08:51:48;;;;;;;;;35.00;28.00;;;;;13.63;70.48;101699.06;5031462;28;47296;-80
2022/03/16 08:54:14;;;;;;;;;33.25;27.75;;;;;13.67;70.02;101699.97;5044284;28;45345;-80
2022/03/16 08:56:39;;;;;;;;;30.50;28.50;;;;;13.72;69.94;101702.69;5050443;28;45342;-81
2022/03/16 08:59:06;;;;;;;;;36.25;33.00;;;;;13.72;70.08;101694.72;5050837;28;54753;-79
2022/03/16 09:01:31;;;;;;;;;30.25;26.75;;;;;13.78;70.02;101702.75;5049001;28;47466;-82
2022/03/16 09:03:56;;;;;;;;;31.50;29.25;;;;;13.85;69.76;101717.91;5012702;28;60974;-82
2022/03/16 09:06:22;;;;;;;;;37.75;30.00;;;;;13.88;69.95;101717.94;5033800;28;53674;-83
2022/03/16 09:08:49;;;;;;;;;39.50;31.50;;;;;13.93;69.71;101720.63;5017426;28;55831;-81
2022/03/16 09:11:19;;;;;;;;;36.50;29.75;;;;;13.96;69.52;101713.63;4984609;28;47925;-85
2022/03/16 09:13:46;;;;;;;;;42.33;33.00;;;;;14.01;69.74;101711.91;4994582;28;45864;-79
2022/03/16 09:16:11;;;;;;;;;32.67;28.00;;;;;14.03;69.24;101710.13;5020902;28;45617;-82
2022/03/16 09:18:37;;;;;;;;;36.75;31.25;;;;;14.09;69.04;101707.53;5013039;28;56045;-80
2022/03/16 09:21:02;;;;;;;;;47.25;39.25;;;;;14.10;68.70;101701.34;5009721;28;46900;-82
2022/03/16 09:23:31;;;;;;;;;36.25;33.50;;;;;14.19;68.64;101699.69;4997856;28;54406;-81
2022/03/16 09:25:59;;;;;;;;;33.25;28.75;;;;;14.22;69.10;101697.97;5031683;28;45828;-80
2022/03/16 09:28:25;;;;;;;;;33.33;26.67;;;;;14.27;68.70;101706.84;5051291;28;45841;-81
2022/03/16 09:30:51;;;;;;;;;36.00;31.67;;;;;14.28;68.61;101702.44;5033424;28;46565;-82
2022/03/16 09:33:17;;;;;;;;;39.50;34.25;;;;;14.37;68.65;101708.69;5053892;28;45237;-81
2022/03/16 09:35:43;;;;;;;;;35.25;32.50;;;;;14.35;68.57;101702.50;5022427;28;45502;-80
2022/03/16 09:38:08;;;;;;;;;38.25;32.25;;;;;14.47;68.54;101711.44;5053838;28;45331;-79
2022/03/16 09:40:34;;;;;;;;;36.00;32.75;;;;;14.47;67.82;101696.44;5033843;28;61961;-79
2022/03/16 09:42:59;;;;;;;;;30.67;27.67;;;;;14.54;68.08;101700.94;5027943;28;45440;-80
2022/03/16 09:45:25;;;;;;;;;29.00;25.33;;;;;14.58;67.61;101701.84;5036558;28;45328;-79
2022/03/16 09:47:50;;;;;;;;;37.75;33.00;;;;;14.61;67.72;101700.09;5034976;28;45465;-80
2022/03/16 09:50:19;;;;;;;;;34.75;29.25;;;;;14.66;67.78;101697.50;5041520;28;45336;-80
2022/03/16 09:52:46;;;;;;;;;34.33;28.67;;;;;14.73;67.51;101703.75;5031080;28;45468;-80
2022/03/16 09:55:12;;;;;;;;;36.00;31.67;;;;;14.72;67.10;101694.88;5047422;28;45569;-80
2022/03/16 09:57:37;;;;;;;;;34.50;30.50;;;;;14.81;67.81;101680.78;5041511;28;45610;-80
2022/03/16 10:00:03;;;;;;;;;41.50;32.75;;;;;14.84;67.58;101681.66;5050012;28;47165;-80
2022/03/16 10:02:28;;;;;;;;;37.75;32.50;;;;;14.86;67.59;101676.34;5050444;28;45331;-81
2022/03/16 10:04:54;;;;;;;;;34.75;31.50;;;;;14.90;67.03;101679.03;5048759;28;46589;-82
2022/03/16 10:07:27;;;;;;;;;41.50;33.25;;;;;14.99;67.32;101680.00;5053068;28;45589;-82
2022/03/16 10:15:20;;;;;;;;;34.50;31.00;;;;;15.04;66.42;101676.47;5053497;28;45642;-80
2022/03/16 10:17:50;;;;;;;;;37.25;33.50;;;;;15.13;66.60;101688.97;5046990;28;45447;-82
2022/03/16 10:20:39;;;;;;;;;37.00;30.67;;;;;15.15;66.21;101674.78;5038028;28;47147;-80
2022/03/16 10:23:21;;;;;;;;;36.00;33.25;;;;;15.23;66.27;101673.91;5055793;28;45360;-80
2022/03/16 10:25:51;;;;;;;;;35.00;31.75;;;;;15.23;66.10;101674.81;5047563;28;45554;-80
2022/03/16 10:28:17;;;;;;;;;33.75;29.00;;;;;15.31;66.39;101675.75;5037673;28;45492;-80
2022/03/16 10:30:50;;;;;;;;;35.67;30.67;;;;;15.35;65.64;101679.31;5048816;28;46865;-82
2022/03/16 10:33:16;;;;;;;;;35.50;31.25;;;;;15.39;66.06;101684.66;5049760;28;45459;-78
2022/03/16 10:36:17;;;;;;;;;32.33;26.67;;;;;15.44;66.00;101685.56;5038988;28;45457;-79
2022/03/16 10:38:43;;;;;;;;;35.25;32.50;;;;;15.53;65.84;101682.06;5039989;28;45549;-80
2022/03/16 10:46:48;;;;;;;;;37.67;33.33;;;;;15.70;65.45;101669.72;5052293;28;45486;-80
2022/03/16 10:49:16;;;;;;;;;31.25;28.00;;;;;15.75;65.21;101675.06;5056598;28;45641;-76
2022/03/16 10:51:43;;;;;;;;;38.67;31.67;;;;;15.75;64.85;101658.22;5047765;28;46293;-75
2022/03/16 10:54:08;;;;;;;;;33.75;30.50;;;;;15.84;64.51;101663.56;5033086;28;45625;-78
2022/03/16 10:56:33;;;;;;;;;34.33;30.00;;;;;15.89;64.60;101657.38;5052264;28;54532;-78
2022/03/16 10:58:59;;;;;;;;;35.75;32.25;;;;;15.95;64.75;101646.72;5029080;28;55155;-78
2022/03/16 11:01:26;;;;;;;;;36.00;34.00;;;;;16.01;64.78;101640.50;5051629;28;47362;-77
2022/03/16 11:03:51;;;;;;;;;31.75;28.50;;;;;16.09;64.69;101635.22;5051176;28;45404;-77
2022/03/16 11:06:20;;;;;;;;;39.00;31.33;;;;;16.18;64.12;101636.09;5050982;28;45490;-77
2022/03/16 11:08:46;;;;;;;;;34.00;32.25;;;;;16.26;63.89;101633.44;5026287;28;45616;-77
2022/03/16 11:13:55;;;;;;;;;41.00;32.75;;;;;16.40;63.73;101620.97;5040068;28;45455;-77
2022/03/16 11:16:21;;;;;;;;;40.25;34.50;;;;;16.43;63.61;101609.44;5037832;28;53585;-79
2022/03/16 11:18:48;;;;;;;;;41.50;33.75;;;;;16.55;63.59;101614.75;5037485;28;45657;-80
2022/03/16 11:21:14;;;;;;;;;37.75;32.75;;;;;16.63;63.45;101610.31;5031947;28;46253;-79